Time;durP1;ratioP1;P1;durP2;ratioP2;P2;SDS_P1;SDS_P2;PMS_P1;PMS_P2;Temp;Humidity;BMP_temperature;BMP_pressure;BME280_temperature;BME280_humidity;BME280_pressure;Samples;Min_cycle;Max_cycle;Signal;HPM_P1;HPM_P2
2021/03/02 00:00:25;;;;;;;12.95;6.70;;;;;;;0.33;67.37;98775.68;1723528;82;21171;-75
2021/03/02 00:02:55;;;;;;;17.47;7.07;;;;;;;0.28;67.16;98768.38;1728969;82;21165;-75
2021/03/02 00:05:23;;;;;;;14.30;6.77;;;;;;;0.29;67.34;98773.56;1733944;82;21160;-78
2021/03/02 00:07:51;;;;;;;12.98;7.05;;;;;;;0.30;67.44;98768.80;1728308;82;21167;-77
2021/03/02 00:10:21;;;;;;;12.23;6.72;;;;;;;0.32;67.47;98775.70;1732490;82;21200;-76
2021/03/02 00:12:51;;;;;;;11.77;5.90;;;;;;;0.25;67.33;98767.98;1734345;80;21706;-77
2021/03/02 00:15:19;;;;;;;12.23;6.67;;;;;;;0.21;67.26;98774.09;1719479;81;21848;-77
2021/03/02 00:17:50;;;;;;;13.60;6.03;;;;;;;0.20;67.38;98769.78;1738364;81;21171;-77
2021/03/02 00:20:23;;;;;;;11.93;5.97;;;;;;;0.16;67.31;98768.08;1720480;82;21168;-75
2021/03/02 00:23:16;;;;;;;11.70;6.78;;;;;;;0.14;67.52;98770.70;1726856;81;21302;-74
2021/03/02 00:25:48;;;;;;;14.60;6.33;;;;;;;0.15;67.60;98766.36;1734975;82;21152;-76
2021/03/02 00:28:16;;;;;;;12.37;6.43;;;;;;;0.12;67.62;98759.94;1713589;83;21169;-76
2021/03/02 00:30:46;;;;;;;11.93;7.10;;;;;;;0.12;67.80;98767.72;1742503;81;21157;-76
2021/03/02 00:33:14;;;;;;;11.60;6.07;;;;;;;0.07;67.65;98766.89;1701307;82;21190;-77
2021/03/02 00:35:42;;;;;;;10.53;5.40;;;;;;;0.08;67.76;98759.53;1686535;83;21212;-77
2021/03/02 00:38:10;;;;;;;11.63;5.55;;;;;;;0.05;67.79;98757.84;1739295;82;21325;-75
2021/03/02 00:40:37;;;;;;;11.40;6.07;;;;;;;0.03;68.27;98759.59;1727144;82;21158;-75
2021/03/02 00:43:06;;;;;;;10.40;5.87;;;;;;;-0.03;68.27;98760.96;1704306;84;21336;-77
2021/03/02 00:45:34;;;;;;;16.33;7.23;;;;;;;-0.09;68.23;98752.81;1682607;84;21301;-75
2021/03/02 00:48:05;;;;;;;11.00;6.03;;;;;;;-0.11;68.27;98749.82;1746305;82;21315;-77
2021/03/02 00:50:34;;;;;;;10.70;5.37;;;;;;;-0.13;68.31;98756.30;1739986;81;21177;-77
2021/03/02 00:53:05;;;;;;;12.37;6.20;;;;;;;-0.14;68.48;98755.90;1705434;82;21303;-76
2021/03/02 00:55:35;;;;;;;12.53;6.53;;;;;;;-0.17;68.62;98746.84;1696076;83;21156;-76
2021/03/02 00:58:03;;;;;;;13.03;6.73;;;;;;;-0.18;68.67;98748.56;1715734;83;21170;-76
2021/03/02 01:00:32;;;;;;;13.40;6.37;;;;;;;-0.20;68.50;98741.27;1682065;84;21267;-75
2021/03/02 01:03:03;;;;;;;14.30;6.63;;;;;;;-0.20;68.94;98742.56;1734679;81;21132;-77
2021/03/02 01:05:33;;;;;;;12.83;7.20;;;;;;;-0.23;68.77;98733.52;1743956;82;21207;-77
2021/03/02 01:08:05;;;;;;;9.07;5.67;;;;;;;-0.23;68.76;98736.11;1726599;83;21301;-78
2021/03/02 01:10:34;;;;;;;11.30;6.23;;;;;;;-0.22;68.86;98738.25;1720411;82;21285;-77
2021/03/02 01:13:04;;;;;;;9.37;5.43;;;;;;;-0.20;68.99;98733.49;1729480;82;21350;-75
2021/03/02 01:15:33;;;;;;;10.63;5.23;;;;;;;-0.20;68.97;98734.79;1698004;84;21347;-76
2021/03/02 01:18:00;;;;;;;8.67;4.63;;;;;;;-0.21;68.82;98729.59;1686600;84;21111;-77
2021/03/02 01:20:27;;;;;;;9.73;5.43;;;;;;;-0.24;68.95;98729.66;1719290;83;21176;-77
2021/03/02 01:22:57;;;;;;;7.30;4.57;;;;;;;-0.25;68.94;98722.75;1693574;83;21199;-76
2021/03/02 01:25:24;;;;;;;9.27;4.97;;;;;;;-0.28;68.98;98724.94;1697311;84;21187;-77
2021/03/02 01:27:51;;;;;;;11.87;5.93;;;;;;;-0.28;69.02;98724.94;1706438;83;21130;-77
2021/03/02 01:30:22;;;;;;;12.87;5.40;;;;;;;-0.30;68.83;98713.73;1715578;83;21163;-76
2021/03/02 01:32:52;;;;;;;9.70;5.30;;;;;;;-0.32;68.95;98719.36;1691612;83;21187;-77
2021/03/02 01:35:21;;;;;;;8.30;5.50;;;;;;;-0.33;68.91;98721.52;1740708;81;21148;-75
2021/03/02 01:37:51;;;;;;;9.30;4.70;;;;;;;-0.33;68.90;98722.40;1736426;81;21109;-76
2021/03/02 01:40:19;;;;;;;10.50;5.40;;;;;;;-0.34;69.08;98727.16;1754511;81;21148;-76
2021/03/02 01:42:47;;;;;;;13.53;5.77;;;;;;;-0.35;69.01;98728.45;1748984;81;21128;-76
2021/03/02 01:45:19;;;;;;;11.90;7.65;;;;;;;-0.29;69.19;98735.30;1732627;82;21362;-77
2021/03/02 01:47:50;;;;;;;10.60;5.37;;;;;;;-0.31;69.12;98735.33;1730102;81;21599;-76
2021/03/02 01:50:21;;;;;;;10.03;5.47;;;;;;;-0.30;69.22;98733.58;1725501;82;21367;-77
2021/03/02 01:52:51;;;;;;;13.00;6.10;;;;;;;-0.30;69.10;98732.28;1727647;81;21160;-75
2021/03/02 01:55:21;;;;;;;11.40;5.20;;;;;;;-0.30;69.14;98731.87;1736961;81;21671;-74
2021/03/02 01:57:51;;;;;;;10.07;4.87;;;;;;;-0.28;69.14;98727.95;1737289;81;21265;-75
2021/03/02 02:00:26;;;;;;;10.68;5.75;;;;;;;-0.28;69.21;98726.23;1748488;81;21596;-75
2021/03/02 02:03:30;;;;;;;10.65;6.12;;;;;;;-0.33;68.87;98730.59;1732165;81;21147;-76
2021/03/02 02:06:23;;;;;;;10.50;5.00;;;;;;;-0.34;69.24;98731.46;1729311;81;21155;-75
2021/03/02 02:09:15;;;;;;;10.88;5.60;;;;;;;-0.37;69.11;98736.25;1715157;82;21125;-75
2021/03/02 02:12:29;;;;;;;9.20;5.05;;;;;;;-0.39;69.07;98735.39;1734372;81;21175;-79
2021/03/02 02:15:08;;;;;;;10.50;5.57;;;;;;;-0.44;68.75;98734.59;1741602;81;21707;-75
2021/03/02 02:18:08;;;;;;;10.10;5.47;;;;;;;-0.52;68.97;98738.55;1726083;81;21176;-76
2021/03/02 02:21:11;;;;;;;8.78;4.87;;;;;;;-0.48;69.96;98743.26;1773463;79;22586;-76
2021/03/02 02:24:00;;;;;;;8.37;5.20;;;;;;;-0.55;69.62;98741.16;1751653;82;21111;-76
2021/03/02 02:27:15;;;;;;;9.37;5.27;;;;;;;-0.55;69.46;98746.78;1754098;82;21131;-77
2021/03/02 02:29:45;;;;;;;9.10;4.67;;;;;;;-0.60;69.51;98748.12;1675866;86;21168;-75
2021/03/02 02:32:13;;;;;;;9.80;4.90;;;;;;;-0.68;69.46;98740.41;1675704;86;21612;-76
2021/03/02 02:34:47;;;;;;;8.20;5.33;;;;;;;-0.70;69.49;98740.88;1671953;86;21182;-75
2021/03/02 02:37:17;;;;;;;10.07;5.60;;;;;;;-0.73;69.52;98742.61;1640102;86;21174;-76
2021/03/02 02:39:45;;;;;;;9.43;5.37;;;;;;;-0.75;69.69;98739.19;1631089;86;21184;-75
2021/03/02 02:42:14;;;;;;;14.67;5.93;;;;;;;-0.76;69.95;98742.20;1632037;87;21163;-76
2021/03/02 02:44:42;;;;;;;10.40;5.57;;;;;;;-0.78;69.91;98745.23;1649108;87;21172;-76
2021/03/02 02:47:10;;;;;;;9.40;5.37;;;;;;;-0.82;69.71;98746.99;1620683;88;21170;-77
2021/03/02 02:49:40;;;;;;;11.27;6.53;;;;;;;-0.83;69.87;98745.27;1625616;88;21188;-75
2021/03/02 02:52:08;;;;;;;10.37;5.67;;;;;;;-0.85;69.64;98743.57;1595341;88;21190;-77
2021/03/02 02:54:36;;;;;;;10.53;5.53;;;;;;;-0.90;70.18;98745.34;1634622;88;21159;-77
2021/03/02 02:57:04;;;;;;;9.63;5.77;;;;;;;-0.93;69.88;98742.77;1644895;87;21552;-76
2021/03/02 02:59:38;;;;;;;11.83;6.00;;;;;;;-0.96;69.84;98741.92;1641960;87;21209;-76
2021/03/02 03:02:10;;;;;;;12.80;6.07;;;;;;;-0.99;69.78;98741.96;1636758;87;21178;-76
2021/03/02 03:04:46;;;;;;;12.57;5.87;;;;;;;-0.98;70.02;98744.11;1645595;87;21378;-76
2021/03/02 03:07:21;;;;;;;11.77;6.07;;;;;;;-0.93;70.03;98746.66;1626242;88;21148;-75
2021/03/02 03:09:52;;;;;;;11.95;5.72;;;;;;;-0.95;69.82;98743.64;1634937;86;21159;-76
2021/03/02 03:12:23;;;;;;;11.83;5.03;;;;;;;-1.01;69.84;98740.23;1641335;87;21308;-76
2021/03/02 03:15:03;;;;;;;8.20;5.27;;;;;;;-1.06;69.99;98738.97;1664233;86;21144;-75
2021/03/02 03:17:34;;;;;;;9.73;4.67;;;;;;;-1.03;70.14;98740.70;1620647;88;21176;-75
2021/03/02 03:20:07;;;;;;;10.43;4.50;;;;;;;-1.07;70.42;98743.75;1655203;86;21251;-78
2021/03/02 03:22:36;;;;;;;6.40;4.13;;;;;;;-1.04;70.39;98736.39;1635976;88;21160;-76
2021/03/02 03:25:07;;;;;;;11.17;5.00;;;;;;;-1.02;70.49;98743.27;1636203;88;21176;-76
2021/03/02 03:27:42;;;;;;;9.47;4.70;;;;;;;-1.01;70.39;98746.28;1648440;85;21184;-75
2021/03/02 03:30:12;;;;;;;8.93;4.35;;;;;;;-1.01;70.22;98746.28;1632879;86;21306;-76
2021/03/02 03:32:44;;;;;;;9.33;5.80;;;;;;;-1.00;70.31;98741.95;1631000;88;21168;-77
2021/03/02 03:35:13;;;;;;;10.70;5.43;;;;;;;-0.97;70.26;98745.83;1651331;86;21185;-76
2021/03/02 03:37:41;;;;;;;9.97;4.97;;;;;;;-0.97;70.17;98747.12;1653230;86;21164;-78
2021/03/02 03:40:10;;;;;;;9.17;4.67;;;;;;;-1.00;70.21;98749.30;1660711;86;21192;-77
2021/03/02 03:42:37;;;;;;;9.80;5.63;;;;;;;-1.03;70.11;98745.43;1654967;86;21162;-77
2021/03/02 03:45:08;;;;;;;8.60;5.47;;;;;;;-1.02;70.13;98744.56;1642358;86;21168;-76
2021/03/02 03:47:36;;;;;;;8.43;4.80;;;;;;;-1.03;70.18;98744.14;1657286;86;21151;-76
2021/03/02 03:50:06;;;;;;;9.07;4.90;;;;;;;-1.05;70.04;98739.84;1661531;86;21161;-77
2021/03/02 03:52:41;;;;;;;7.23;4.50;;;;;;;-1.06;70.29;98734.24;1660849;86;21160;-76
2021/03/02 03:55:28;;;;;;;8.53;4.20;;;;;;;-1.05;70.40;98735.52;1617718;86;21164;-76
2021/03/02 03:57:58;;;;;;;8.83;4.47;;;;;;;-1.07;70.33;98729.94;1661165;86;21580;-76
2021/03/02 04:00:30;;;;;;;9.07;5.47;;;;;;;-1.07;70.38;98733.39;1660143;86;21128;-76
2021/03/02 04:02:59;;;;;;;8.70;4.63;;;;;;;-1.04;70.32;98730.77;1650418;86;21172;-76
2021/03/02 04:05:27;;;;;;;8.47;4.57;;;;;;;-1.06;70.44;98732.50;1652585;86;21144;-77
2021/03/02 04:07:57;;;;;;;8.33;5.10;;;;;;;-1.04;70.52;98733.80;1648117;86;21203;-75
2021/03/02 04:10:27;;;;;;;7.23;4.23;;;;;;;-1.01;70.56;98737.64;1643838;86;21728;-75
2021/03/02 04:12:57;;;;;;;11.20;4.77;;;;;;;-1.04;70.53;98738.53;1661873;85;21217;-75
2021/03/02 04:15:28;;;;;;;8.83;5.00;;;;;;;-1.03;70.52;98740.25;1653838;86;21624;-76
2021/03/02 04:17:58;;;;;;;8.20;5.37;;;;;;;-1.07;70.39;98743.75;1637504;86;21332;-76
2021/03/02 04:20:26;;;;;;;8.23;4.67;;;;;;;-1.08;70.56;98736.85;1655673;86;21160;-75
2021/03/02 04:22:56;;;;;;;9.87;5.13;;;;;;;-1.09;70.46;98739.02;1654449;86;21188;-77
2021/03/02 04:25:30;;;;;;;8.93;4.80;;;;;;;-1.12;70.41;98739.90;1661092;86;21544;-76
2021/03/02 04:28:04;;;;;;;7.17;4.40;;;;;;;-1.13;70.34;98731.70;1660114;86;21322;-74
2021/03/02 04:30:33;;;;;;;13.13;4.60;;;;;;;-1.14;70.34;98738.16;1584578;91;21188;-76
2021/03/02 04:33:02;;;;;;;9.63;5.10;;;;;;;-1.16;70.46;98746.41;1620827;87;21189;-77
2021/03/02 04:35:30;;;;;;;13.37;6.80;;;;;;;-1.18;70.41;98740.38;1664806;85;21293;-76
2021/03/02 04:37:57;;;;;;;13.23;6.37;;;;;;;-1.17;70.40;98733.03;1661350;86;21305;-76
2021/03/02 04:40:31;;;;;;;11.70;6.00;;;;;;;-1.19;70.26;98730.88;1659183;85;21120;-76
2021/03/02 04:42:59;;;;;;;10.90;6.20;;;;;;;-1.27;69.95;98737.39;1664775;85;21156;-76
2021/03/02 04:45:28;;;;;;;10.33;6.93;;;;;;;-1.30;70.19;98733.10;1678301;85;21191;-77
2021/03/02 04:47:55;;;;;;;15.17;7.10;;;;;;;-1.35;70.24;98727.11;1654001;86;21207;-76
2021/03/02 04:50:23;;;;;;;11.37;6.90;;;;;;;-1.38;71.20;98731.00;1658351;86;21168;-75
2021/03/02 04:52:50;;;;;;;14.73;7.20;;;;;;;-1.38;70.45;98725.83;1665745;85;21179;-76
2021/03/02 04:55:18;;;;;;;11.33;6.63;;;;;;;-1.40;70.63;98719.80;1663461;85;21199;-75
2021/03/02 04:57:45;;;;;;;13.10;6.37;;;;;;;-1.36;70.76;98725.39;1664398;85;21278;-76
2021/03/02 05:00:15;;;;;;;14.40;8.03;;;;;;;-1.32;70.76;98725.78;1654231;87;21329;-77
2021/03/02 05:02:42;;;;;;;12.37;6.57;;;;;;;-1.31;70.64;98733.13;1642827;87;21148;-76
2021/03/02 05:05:11;;;;;;;13.13;6.50;;;;;;;-1.29;70.60;98724.47;1648404;86;21167;-78
2021/03/02 05:07:39;;;;;;;10.70;5.83;;;;;;;-1.27;70.60;98727.92;1647123;86;21252;-78
2021/03/02 05:10:11;;;;;;;11.43;6.43;;;;;;;-1.24;70.58;98730.04;1645982;85;21248;-76
2021/03/02 05:12:43;;;;;;;10.30;5.23;;;;;;;-1.26;70.52;98737.41;1648068;86;21186;-76
2021/03/02 05:15:12;;;;;;;9.70;5.30;;;;;;;-1.27;70.43;98733.09;1660385;85;21533;-77
2021/03/02 05:17:42;;;;;;;11.37;6.67;;;;;;;-1.30;70.46;98734.39;1659030;86;21153;-77
2021/03/02 05:20:11;;;;;;;16.43;6.43;;;;;;;-1.29;70.39;98735.23;1640643;86;21161;-77
2021/03/02 05:22:39;;;;;;;13.77;6.10;;;;;;;-1.26;70.58;98729.64;1616699;88;21211;-77
2021/03/02 05:25:08;;;;;;;13.47;7.53;;;;;;;-1.20;70.57;98725.28;1640801;86;21172;-75
2021/03/02 05:27:36;;;;;;;15.77;6.90;;;;;;;-1.19;70.25;98736.91;1585836;89;21183;-76
2021/03/02 05:30:05;;;;;;;14.83;6.40;;;;;;;-1.17;70.49;98738.21;1637376;87;21186;-76
2021/03/02 05:32:32;;;;;;;12.10;6.70;;;;;;;-1.14;70.33;98741.63;1592550;90;21199;-74
2021/03/02 05:35:01;;;;;;;16.00;7.87;;;;;;;-1.11;70.36;98743.33;1606395;89;21177;-76
2021/03/02 05:37:29;;;;;;;10.07;5.67;;;;;;;-1.09;70.30;98744.19;1618731;89;21170;-77
2021/03/02 05:39:59;;;;;;;10.00;6.00;;;;;;;-1.07;70.27;98738.58;1619383;89;21290;-75
2021/03/02 05:42:27;;;;;;;10.87;6.87;;;;;;;-1.03;70.28;98746.72;1619045;89;21159;-77
2021/03/02 05:44:55;;;;;;;14.17;7.07;;;;;;;-1.02;70.11;98753.63;1618989;89;21280;-77
2021/03/02 05:47:23;;;;;;;14.03;7.80;;;;;;;-0.95;71.25;98763.51;1617877;89;21130;-76
2021/03/02 05:49:50;;;;;;;18.07;8.13;;;;;;;-0.89;71.16;98763.45;1616623;89;21179;-77
2021/03/02 05:52:19;;;;;;;19.40;8.00;;;;;;;-0.84;70.68;98766.88;1618827;89;21736;-77
2021/03/02 05:54:52;;;;;;;19.00;7.53;;;;;;;-0.81;70.35;98772.02;1600150;89;21282;-75
2021/03/02 05:57:20;;;;;;;17.47;8.53;;;;;;;-0.76;70.10;98770.69;1618396;88;21231;-79
2021/03/02 05:59:52;;;;;;;17.00;8.27;;;;;;;-0.69;70.09;98778.83;1611680;88;21337;-76
2021/03/02 06:02:21;;;;;;;17.77;9.47;;;;;;;-0.59;70.00;98765.38;1619626;88;21166;-77
2021/03/02 06:04:50;;;;;;;19.67;8.60;;;;;;;-0.45;69.90;98769.15;1605953;89;21192;-73
2021/03/02 06:07:18;;;;;;;16.00;8.37;;;;;;;-0.30;69.93;98767.27;1601359;89;21333;-74
2021/03/02 06:09:45;;;;;;;13.50;7.13;;;;;;;-0.01;70.15;98767.00;1616258;89;21550;-74
2021/03/02 06:12:14;;;;;;;11.63;8.00;;;;;;;0.45;70.18;98766.87;1615954;89;21162;-74
2021/03/02 06:14:42;;;;;;;12.73;7.37;;;;;;;0.93;69.55;98768.81;1590972;90;21193;-73
2021/03/02 06:17:09;;;;;;;13.43;7.12;;;;;;;1.39;69.05;98772.46;1615924;89;21281;-74
2021/03/02 06:19:45;;;;;;;12.85;7.40;;;;;;;1.81;67.62;98770.00;1602828;89;21166;-75
2021/03/02 06:22:39;;;;;;;10.50;6.92;;;;;;;2.18;66.92;98762.80;1618616;88;21148;-77
2021/03/02 06:25:29;;;;;;;20.20;11.45;;;;;;;2.61;66.33;98760.22;1611724;88;21329;-77
2021/03/02 06:27:57;;;;;;;11.60;7.58;;;;;;;3.08;65.51;98771.34;1587303;90;21344;-76
2021/03/02 06:30:25;;;;;;;12.43;7.22;;;;;;;3.58;64.52;98767.52;1607163;89;21762;-75
2021/03/02 06:32:56;;;;;;;15.03;7.17;;;;;;;3.99;63.34;98765.61;1662370;86;21294;-76
2021/03/02 06:35:44;;;;;;;15.45;6.80;;;;;;;4.31;62.43;98765.18;1663754;85;21273;-74
2021/03/02 06:38:33;;;;;;;13.70;7.20;;;;;;;4.67;61.44;98760.22;1667569;86;21293;-75
2021/03/02 06:41:05;;;;;;;13.22;6.78;;;;;;;5.11;59.86;98761.08;1667404;85;21151;-75
2021/03/02 06:43:37;;;;;;;12.55;7.00;;;;;;;5.40;59.25;98760.60;1667027;86;21846;-78
2021/03/02 06:46:10;;;;;;;11.15;6.65;;;;;;;5.48;59.03;98756.81;1678657;85;21545;-76
2021/03/02 06:49:00;;;;;;;11.60;6.58;;;;;;;5.74;58.69;98756.85;1667309;85;21288;-78
2021/03/02 06:51:41;;;;;;;10.55;7.65;;;;;;;5.97;59.42;98759.14;1674049;85;21305;-76
2021/03/02 06:54:15;;;;;;;12.65;6.15;;;;;;;6.23;57.99;98755.61;1668236;85;21152;-75
2021/03/02 06:56:42;;;;;;;10.50;5.90;;;;;;;6.54;57.03;98751.41;1667967;86;21613;-75
2021/03/02 06:59:19;;;;;;;9.15;5.75;;;;;;;6.84;55.52;98756.40;1667645;86;21270;-76
2021/03/02 07:01:48;;;;;;;10.55;6.03;;;;;;;7.26;55.72;98747.38;1665117;86;21183;-75
2021/03/02 07:04:19;;;;;;;12.95;6.78;;;;;;;7.26;55.72;98747.38;1667322;86;21585;-76
2021/03/02 07:06:52;;;;;;;7.70;5.05;;;;;;;7.79;55.05;98746.91;1665500;86;21203;-75
2021/03/02 07:09:19;;;;;;;12.63;6.33;;;;;;;7.79;55.05;98746.91;1646390;86;21206;-75
2021/03/02 07:11:47;;;;;;;11.28;5.55;;;;;;;8.01;54.28;98748.62;1662756;86;21190;-76
2021/03/02 07:14:16;;;;;;;14.75;5.45;;;;;;;8.20;53.39;98741.25;1667302;86;21167;-74
2021/03/02 07:16:52;;;;;;;17.05;5.37;;;;;;;8.46;53.95;98749.25;1664811;86;21171;-77
2021/03/02 07:19:31;;;;;;;27.80;7.53;;;;;;;8.61;53.50;98746.42;1660230;85;21159;-76
2021/03/02 07:22:02;;;;;;;9.55;5.10;;;;;;;8.69;53.04;98748.70;1656120;86;21212;-80
2021/03/02 07:24:34;;;;;;;16.55;6.50;;;;;;;8.94;52.22;98760.70;1647329;85;21140;-81
2021/03/02 07:27:05;;;;;;;15.35;6.22;;;;;;;9.05;51.94;98754.00;1669480;86;21179;-82
2021/03/02 07:29:33;;;;;;;25.80;6.15;;;;;;;9.17;50.92;98750.40;1665242;85;21196;-76
2021/03/02 07:32:04;;;;;;;12.82;5.90;;;;;;;9.20;51.97;98750.27;1665905;86;21204;-77
2021/03/02 07:34:32;;;;;;;9.80;5.55;;;;;;;9.26;50.74;98756.53;1674537;85;21276;-78
2021/03/02 07:37:00;;;;;;;23.40;6.47;;;;;;;9.34;50.55;98748.27;1676383;85;21166;-76
2021/03/02 07:39:28;;;;;;;10.50;5.60;;;;;;;9.45;50.53;98745.97;1675958;85;21544;-76
2021/03/02 07:42:07;;;;;;;9.13;5.40;;;;;;;9.58;49.46;98743.58;1685970;84;21162;-81
2021/03/02 07:45:05;;;;;;;11.33;5.95;;;;;;;9.72;49.30;98742.89;1673943;85;21285;-77
2021/03/02 07:47:56;;;;;;;10.60;5.92;;;;;;;9.80;49.83;98741.16;1671633;85;21152;-78
2021/03/02 07:50:31;;;;;;;18.98;7.12;;;;;;;9.84;48.63;98736.14;1675568;85;21607;-76
2021/03/02 07:53:23;;;;;;;12.18;9.53;;;;;;;9.91;49.40;98735.36;1662065;85;21160;-75
2021/03/02 07:56:20;;;;;;;16.37;12.33;;;;;;;9.95;48.46;98732.94;1664816;85;21167;-75
2021/03/02 07:59:11;;;;;;;23.42;10.40;;;;;;;10.15;48.61;98734.08;1636961;88;21578;-76
2021/03/02 08:01:40;;;;;;;16.30;8.00;;;;;;;10.28;47.47;98721.58;1645431;86;21136;-76
2021/03/02 08:04:19;;;;;;;19.57;6.80;;;;;;;10.36;47.72;98713.25;1640104;86;21199;-76
2021/03/02 08:06:50;;;;;;;8.40;5.45;;;;;;;10.52;47.12;98719.45;1647355;86;21684;-75
2021/03/02 08:09:30;;;;;;;16.00;8.53;;;;;;;10.60;47.37;98721.20;1639270;87;21184;-76
2021/03/02 08:12:30;;;;;;;17.57;10.32;;;;;;;10.73;47.23;98720.50;1639375;88;21177;-74
2021/03/02 08:15:14;;;;;;;15.68;9.28;;;;;;;10.77;46.37;98718.09;1640798;87;21212;-75
2021/03/02 08:17:43;;;;;;;14.03;8.33;;;;;;;10.81;46.76;98716.14;1665479;86;21132;-75
2021/03/02 08:20:11;;;;;;;12.65;7.92;;;;;;;10.82;46.47;98708.61;1618294;86;21203;-74
2021/03/02 08:22:46;;;;;;;11.25;7.15;;;;;;;10.85;46.31;98710.61;1648831;86;21367;-76
2021/03/02 08:25:27;;;;;;;9.95;6.53;;;;;;;10.87;45.42;98704.78;1654790;86;21304;-77
2021/03/02 08:27:59;;;;;;;12.33;7.75;;;;;;;10.99;45.89;98707.67;1639752;87;21183;-75
2021/03/02 08:30:37;;;;;;;17.42;8.33;;;;;;;11.06;45.55;98702.42;1646895;86;21190;-74
2021/03/02 08:33:18;;;;;;;23.83;8.63;;;;;;;10.89;45.62;98697.64;1642490;86;21270;-75
2021/03/02 08:35:45;;;;;;;19.40;8.63;;;;;;;10.88;45.72;98695.94;1648469;86;21159;-79
2021/03/02 08:38:15;;;;;;;25.35;8.38;;;;;;;10.91;45.16;98693.11;1639557;86;21772;-78
2021/03/02 08:40:48;;;;;;;21.95;9.10;;;;;;;10.97;45.05;98693.71;1676743;85;21160;-80
2021/03/02 08:43:25;;;;;;;10.07;6.83;;;;;;;11.01;45.50;98691.27;1664783;84;21472;-77
2021/03/02 08:45:58;;;;;;;13.75;8.65;;;;;;;11.06;45.37;98694.03;1666077;86;21140;-76
2021/03/02 08:48:32;;;;;;;13.40;7.95;;;;;;;11.09;45.72;98689.03;1664770;86;21609;-77
2021/03/02 08:51:05;;;;;;;16.07;7.25;;;;;;;11.09;45.82;98689.03;1664666;86;21406;-77
2021/03/02 08:53:40;;;;;;;9.25;6.25;;;;;;;11.07;45.79;98690.94;1645138;86;21552;-77
2021/03/02 08:56:24;;;;;;;15.03;7.72;;;;;;;11.08;44.55;98687.36;1640791;87;21175;-78
2021/03/02 08:58:54;;;;;;;9.28;5.75;;;;;;;11.11;44.87;98688.48;1676417;85;21124;-78
2021/03/02 09:01:27;;;;;;;7.60;5.28;;;;;;;11.08;42.76;98690.00;1669335;85;21210;-77
2021/03/02 09:04:15;;;;;;;7.00;4.37;;;;;;;11.04;44.44;98689.78;1659161;85;21156;-79
2021/03/02 09:06:48;;;;;;;9.03;5.40;;;;;;;10.96;44.55;98694.64;1622099;88;21183;-78
2021/03/02 09:09:20;;;;;;;4.40;3.37;;;;;;;10.70;44.35;98694.32;1617576;88;21714;-77
2021/03/02 09:11:59;;;;;;;7.90;5.58;;;;;;;10.49;41.85;98705.59;1805601;79;22653;-78
2021/03/02 09:14:33;;;;;;;6.85;4.92;;;;;;;10.04;43.44;98697.37;1755149;81;21541;-77
2021/03/02 09:17:06;;;;;;;7.42;5.45;;;;;;;9.89;44.22;98690.64;1759584;81;21120;-78
2021/03/02 09:19:40;;;;;;;13.50;5.22;;;;;;;9.87;44.69;98699.12;1766258;80;21152;-78
2021/03/02 09:22:13;;;;;;;8.43;5.28;;;;;;;9.84;43.34;98694.00;1781162;80;21139;-78
2021/03/02 09:24:49;;;;;;;7.83;6.03;;;;;;;9.79;44.63;98692.08;1762047;81;21152;-80
2021/03/02 09:27:25;;;;;;;10.75;5.10;;;;;;;9.80;44.42;98692.44;1782455;80;21164;-78
2021/03/02 09:29:56;;;;;;;11.88;5.50;;;;;;;9.81;44.67;98691.52;1778971;78;21155;-80
2021/03/02 09:32:30;;;;;;;7.87;5.12;;;;;;;9.78;44.55;98695.16;1749230;81;21176;-78
2021/03/02 09:35:05;;;;;;;7.58;5.33;;;;;;;9.78;44.36;98697.80;1761979;80;21294;-78
2021/03/02 09:37:36;;;;;;;8.73;5.65;;;;;;;9.69;44.70;98691.69;1787580;80;21549;-77
2021/03/02 09:40:11;;;;;;;5.08;3.42;;;;;;;9.67;44.64;98694.86;1786736;80;21112;-77
2021/03/02 09:42:42;;;;;;;9.38;5.00;;;;;;;9.64;44.29;98694.55;1785926;80;21293;-78
2021/03/02 09:45:21;;;;;;;7.90;5.62;;;;;;;9.61;45.32;98703.91;1759993;80;21230;-78
2021/03/02 09:47:58;;;;;;;7.33;5.78;;;;;;;9.65;45.41;98697.58;1759245;81;21163;-78
2021/03/02 09:50:30;;;;;;;11.22;5.78;;;;;;;9.67;44.32;98697.05;1764776;80;21097;-78
2021/03/02 09:53:11;;;;;;;10.53;5.10;;;;;;;9.71;45.05;98695.55;1784438;80;21597;-77
2021/03/02 09:55:39;;;;;;;10.03;6.42;;;;;;;9.68;44.87;98697.43;1782877;80;21159;-77
2021/03/02 09:58:23;;;;;;;7.12;5.47;;;;;;;9.64;45.37;98701.61;1776032;80;21160;-78
2021/03/02 10:01:03;;;;;;;8.53;4.97;;;;;;;9.73;46.01;98704.23;1760022;81;21129;-79
2021/03/02 10:03:37;;;;;;;6.05;4.70;;;;;;;9.73;44.77;98697.64;1760407;81;21152;-78
2021/03/02 10:06:07;;;;;;;8.10;4.80;;;;;;;9.71;45.01;98698.18;1760992;80;21093;-78
2021/03/02 10:08:42;;;;;;;6.47;4.15;;;;;;;9.77;45.29;98703.98;1761214;81;21557;-78
2021/03/02 10:11:20;;;;;;;7.00;4.12;;;;;;;9.82;44.94;98700.67;1751634;80;21122;-78
2021/03/02 10:13:52;;;;;;;6.70;3.67;;;;;;;9.85;44.86;98703.13;1761903;81;21244;-78
2021/03/02 10:16:32;;;;;;;6.35;3.62;;;;;;;9.85;43.64;98700.97;1701398;83;21161;-79
2021/03/02 10:19:19;;;;;;;5.80;3.98;;;;;;;9.89;44.03;98702.98;1694331;84;21114;-80
2021/03/02 10:21:53;;;;;;;7.33;3.52;;;;;;;9.91;43.98;98693.22;1764626;81;21701;-79
2021/03/02 10:24:39;;;;;;;7.40;3.25;;;;;;;9.96;43.77;98703.04;1778491;80;21668;-81
2021/03/02 10:27:15;;;;;;;6.03;3.50;;;;;;;9.41;43.40;98598.81;1709928;83;21196;-79
2021/03/02 10:29:47;;;;;;;9.43;4.05;;;;;;;9.93;43.38;98685.62;1778045;81;21243;-81
2021/03/02 10:32:18;;;;;;;4.78;3.37;;;;;;;10.01;42.76;98690.50;1709883;83;21165;-80
2021/03/02 10:34:46;;;;;;;7.45;3.52;;;;;;;10.04;42.01;98681.57;1709239;84;21153;-78
2021/03/02 10:37:18;;;;;;;4.12;2.77;;;;;;;10.08;43.53;98680.01;1691393;84;21164;-78
2021/03/02 10:39:45;;;;;;;5.53;3.10;;;;;;;10.15;41.88;98676.59;1691166;85;21129;-79
2021/03/02 10:42:12;;;;;;;8.58;3.55;;;;;;;10.10;41.70;98678.60;1690491;83;21152;-79
2021/03/02 10:44:41;;;;;;;7.25;3.47;;;;;;;10.06;40.92;98678.40;1747638;82;21168;-79
2021/03/02 10:47:09;;;;;;;4.62;2.92;;;;;;;10.08;43.32;98680.45;1747353;82;21129;-78
2021/03/02 10:49:38;;;;;;;5.08;3.62;;;;;;;10.12;42.94;98677.58;1747277;82;21135;-76
2021/03/02 10:52:14;;;;;;;4.67;3.12;;;;;;;10.08;41.65;98673.88;1747437;81;21121;-76
2021/03/02 10:54:41;;;;;;;5.83;3.05;;;;;;;10.16;41.64;98673.86;1745749;82;21143;-76
2021/03/02 10:57:09;;;;;;;10.70;3.87;;;;;;;10.27;42.49;98669.32;1745016;82;21648;-77
2021/03/02 10:59:37;;;;;;;10.45;3.20;;;;;;;10.33;42.52;98663.35;1746215;81;21192;-77
2021/03/02 11:02:05;;;;;;;4.45;2.98;;;;;;;10.33;40.08;98659.40;1746564;81;21198;-75
2021/03/02 11:05:08;;;;;;;7.20;3.77;;;;;;;10.39;42.33;98658.64;1746910;81;21128;-76
2021/03/02 11:07:35;;;;;;;5.33;3.42;;;;;;;10.49;42.86;98656.81;1745430;82;21133;-74
2021/03/02 11:10:05;;;;;;;8.05;3.25;;;;;;;10.60;42.41;98650.00;1745655;82;21164;-76
2021/03/02 11:17:00;;;;;;;7.60;3.22;;;;;;;10.73;42.43;98637.42;1770985;81;21751;-78
2021/03/02 11:19:30;;;;;;;8.00;3.50;;;;;;;10.83;40.39;98637.30;1739269;81;21588;-75
2021/03/02 11:22:17;;;;;;;7.70;2.90;;;;;;;10.85;42.02;98635.91;1746274;81;21169;-76
2021/03/02 11:24:51;;;;;;;4.50;2.87;;;;;;;10.90;40.83;98628.56;1667341;85;21149;-76
2021/03/02 11:28:03;;;;;;;4.87;3.40;;;;;;;10.97;40.89;98622.48;1723137;81;21151;-77
2021/03/02 11:30:31;;;;;;;5.95;3.42;;;;;;;11.00;41.79;98620.51;1759159;81;21153;-78
2021/03/02 11:32:59;;;;;;;8.75;4.17;;;;;;;11.05;41.70;98613.64;1746820;81;21176;-77
2021/03/02 11:35:28;;;;;;;5.62;3.45;;;;;;;11.10;41.94;98608.94;1754286;81;21117;-77
2021/03/02 11:41:17;;;;;;;7.28;3.62;;;;;;;11.24;41.83;98604.17;1695514;84;21149;-76
2021/03/02 11:43:47;;;;;;;8.05;4.17;;;;;;;11.38;41.73;98607.31;1743910;81;21381;-77
2021/03/02 11:46:15;;;;;;;4.78;3.15;;;;;;;11.44;41.82;98601.69;1743653;81;21322;-74
2021/03/02 11:48:44;;;;;;;9.33;3.58;;;;;;;11.46;41.59;98603.73;1742857;82;21188;-78
2021/03/02 11:51:19;;;;;;;6.15;3.37;;;;;;;11.49;41.44;98597.45;1754383;81;21148;-76
2021/03/02 11:53:58;;;;;;;7.58;4.37;;;;;;;11.48;41.32;98607.14;1746131;81;21160;-77
2021/03/02 11:56:25;;;;;;;8.35;3.47;;;;;;;11.47;41.79;98600.64;1745557;81;21264;-77
2021/03/02 11:59:06;;;;;;;6.17;3.67;;;;;;;11.48;41.71;98591.30;1740667;82;21372;-77
2021/03/02 12:01:59;;;;;;;5.47;2.92;;;;;;;11.52;41.92;98596.78;1746265;82;21151;-77
2021/03/02 12:04:35;;;;;;;4.05;2.80;;;;;;;11.56;40.84;98590.36;1746182;81;21124;-76
2021/03/02 12:07:04;;;;;;;6.42;3.42;;;;;;;11.55;40.02;98596.58;1746715;82;21570;-77